sensor_id;sensor_type;location;lat;lon;timestamp;pressure;altitude;pressure_sealevel;temperature;humidity
4085;BME280;2057;50.858;6.572;2023-02-17T00:02:03;100915.41;;;10.40;100.00
4085;BME280;2057;50.858;6.572;2023-02-17T00:04:30;100904.19;;;10.36;100.00
4085;BME280;2057;50.858;6.572;2023-02-17T00:06:56;100909.72;;;10.29;100.00
4085;BME280;2057;50.858;6.572;2023-02-17T00:09:21;100902.03;;;10.27;100.00
4085;BME280;2057;50.858;6.572;2023-02-17T00:11:47;100906.19;;;10.27;100.00
4085;BME280;2057;50.858;6.572;2023-02-17T00:14:13;100898.66;;;10.28;100.00
4085;BME280;2057;50.858;6.572;2023-02-17T00:16:38;100898.75;;;10.15;100.00
4085;BME280;2057;50.858;6.572;2023-02-17T00:19:03;100888.97;;;10.21;100.00
4085;BME280;2057;50.858;6.572;2023-02-17T00:21:48;100901.91;;;10.26;100.00
4085;BME280;2057;50.858;6.572;2023-02-17T00:24:13;100896.22;;;10.30;100.00
4085;BME280;2057;50.858;6.572;2023-02-17T00:26:38;100895.25;;;10.28;100.00
4085;BME280;2057;50.858;6.572;2023-02-17T00:29:04;100900.00;;;10.22;100.00
4085;BME280;2057;50.858;6.572;2023-02-17T00:31:29;100888.09;;;10.20;100.00
4085;BME280;2057;50.858;6.572;2023-02-17T00:33:54;100879.25;;;10.29;100.00
4085;BME280;2057;50.858;6.572;2023-02-17T00:36:20;100875.50;;;10.22;100.00
4085;BME280;2057;50.858;6.572;2023-02-17T00:38:47;100872.09;;;10.22;100.00
4085;BME280;2057;50.858;6.572;2023-02-17T00:41:12;100873.72;;;10.21;100.00
4085;BME280;2057;50.858;6.572;2023-02-17T00:43:38;100871.19;;;10.21;100.00
4085;BME280;2057;50.858;6.572;2023-02-17T00:46:03;100866.31;;;10.24;100.00
4085;BME280;2057;50.858;6.572;2023-02-17T00:48:29;100866.75;;;10.17;100.00
4085;BME280;2057;50.858;6.572;2023-02-17T00:50:55;100861.03;;;10.21;100.00
4085;BME280;2057;50.858;6.572;2023-02-17T00:53:21;100866.13;;;10.21;100.00
4085;BME280;2057;50.858;6.572;2023-02-17T00:55:46;100870.59;;;10.25;100.00
4085;BME280;2057;50.858;6.572;2023-02-17T00:58:12;100866.31;;;10.24;100.00
4085;BME280;2057;50.858;6.572;2023-02-17T01:00:37;100861.81;;;10.20;100.00
4085;BME280;2057;50.858;6.572;2023-02-17T01:03:03;100868.84;;;10.24;100.00
4085;BME280;2057;50.858;6.572;2023-02-17T01:05:28;100857.91;;;10.25;100.00
4085;BME280;2057;50.858;6.572;2023-02-17T01:07:54;100862.19;;;10.26;100.00
4085;BME280;2057;50.858;6.572;2023-02-17T01:10:20;100854.47;;;10.25;100.00
4085;BME280;2057;50.858;6.572;2023-02-17T01:12:45;100850.09;;;10.22;100.00
4085;BME280;2057;50.858;6.572;2023-02-17T01:15:11;100835.06;;;10.25;100.00
4085;BME280;2057;50.858;6.572;2023-02-17T01:17:36;100832.59;;;10.27;100.00
4085;BME280;2057;50.858;6.572;2023-02-17T01:20:02;100841.13;;;10.27;100.00
4085;BME280;2057;50.858;6.572;2023-02-17T01:22:27;100821.75;;;10.29;100.00
4085;BME280;2057;50.858;6.572;2023-02-17T01:24:53;100826.13;;;10.32;100.00
4085;BME280;2057;50.858;6.572;2023-02-17T01:27:18;100829.47;;;10.31;100.00
4085;BME280;2057;50.858;6.572;2023-02-17T01:29:45;100819.84;;;10.25;100.00
4085;BME280;2057;50.858;6.572;2023-02-17T01:32:11;100825.06;;;10.28;100.00
4085;BME280;2057;50.858;6.572;2023-02-17T01:34:36;100813.41;;;10.32;100.00
4085;BME280;2057;50.858;6.572;2023-02-17T01:37:02;100812.50;;;10.30;100.00
4085;BME280;2057;50.858;6.572;2023-02-17T01:39:27;100796.72;;;10.35;100.00
4085;BME280;2057;50.858;6.572;2023-02-17T01:41:53;100797.41;;;10.33;100.00
4085;BME280;2057;50.858;6.572;2023-02-17T01:44:20;100801.63;;;10.32;100.00
4085;BME280;2057;50.858;6.572;2023-02-17T01:46:49;100798.13;;;10.30;100.00
4085;BME280;2057;50.858;6.572;2023-02-17T01:49:33;100803.38;;;10.33;100.00
4085;BME280;2057;50.858;6.572;2023-02-17T01:54:38;100793.13;;;10.32;100.00
4085;BME280;2057;50.858;6.572;2023-02-17T01:57:05;100784.81;;;10.34;100.00
4085;BME280;2057;50.858;6.572;2023-02-17T01:59:31;100784.66;;;10.31;100.00
4085;BME280;2057;50.858;6.572;2023-02-17T02:01:59;100793.22;;;10.33;100.00
4085;BME280;2057;50.858;6.572;2023-02-17T02:04:30;100790.50;;;10.30;100.00
4085;BME280;2057;50.858;6.572;2023-02-17T02:06:56;100790.69;;;10.33;100.00
4085;BME280;2057;50.858;6.572;2023-02-17T02:09:26;100778.00;;;10.33;100.00
4085;BME280;2057;50.858;6.572;2023-02-17T02:11:55;100795.66;;;10.32;100.00
4085;BME280;2057;50.858;6.572;2023-02-17T02:14:21;100784.03;;;10.35;100.00
4085;BME280;2057;50.858;6.572;2023-02-17T02:19:39;100775.03;;;10.41;100.00
4085;BME280;2057;50.858;6.572;2023-02-17T02:33:41;100772.16;;;10.19;100.00
4085;BME280;2057;50.858;6.572;2023-02-17T02:36:10;100779.69;;;10.18;100.00
4085;BME280;2057;50.858;6.572;2023-02-17T02:38:43;100781.78;;;10.25;100.00
4085;BME280;2057;50.858;6.572;2023-02-17T02:41:12;100776.19;;;10.16;100.00
4085;BME280;2057;50.858;6.572;2023-02-17T02:43:40;100771.84;;;10.13;100.00
4085;BME280;2057;50.858;6.572;2023-02-17T02:46:07;100787.84;;;10.12;100.00
4085;BME280;2057;50.858;6.572;2023-02-17T02:48:33;100772.94;;;10.18;100.00
4085;BME280;2057;50.858;6.572;2023-02-17T03:05:03;100755.19;;;10.18;100.00
4085;BME280;2057;50.858;6.572;2023-02-17T03:07:39;100750.91;;;10.17;100.00
4085;BME280;2057;50.858;6.572;2023-02-17T03:10:07;100755.97;;;10.17;100.00
4085;BME280;2057;50.858;6.572;2023-02-17T03:12:35;100760.78;;;10.13;100.00
4085;BME280;2057;50.858;6.572;2023-02-17T03:15:08;100772.41;;;10.24;100.00
4085;BME280;2057;50.858;6.572;2023-02-17T03:17:36;100759.09;;;10.28;100.00
4085;BME280;2057;50.858;6.572;2023-02-17T03:20:03;100754.72;;;10.26;100.00
4085;BME280;2057;50.858;6.572;2023-02-17T03:22:33;100759.56;;;10.21;100.00
4085;BME280;2057;50.858;6.572;2023-02-17T03:24:59;100743.72;;;10.25;100.00
4085;BME280;2057;50.858;6.572;2023-02-17T03:27:25;100748.88;;;10.27;100.00
4085;BME280;2057;50.858;6.572;2023-02-17T03:29:51;100742.81;;;10.25;100.00
4085;BME280;2057;50.858;6.572;2023-02-17T03:32:17;100746.56;;;10.31;100.00
4085;BME280;2057;50.858;6.572;2023-02-17T03:34:42;100745.78;;;10.32;100.00
4085;BME280;2057;50.858;6.572;2023-02-17T03:37:07;100734.06;;;10.34;100.00
4085;BME280;2057;50.858;6.572;2023-02-17T03:39:33;100730.19;;;10.41;100.00
4085;BME280;2057;50.858;6.572;2023-02-17T03:41:58;100727.38;;;10.36;100.00
4085;BME280;2057;50.858;6.572;2023-02-17T03:44:23;100738.09;;;10.31;100.00
4085;BME280;2057;50.858;6.572;2023-02-17T03:46:49;100734.94;;;10.35;100.00
4085;BME280;2057;50.858;6.572;2023-02-17T03:49:14;100738.97;;;10.31;100.00
4085;BME280;2057;50.858;6.572;2023-02-17T03:51:39;100732.31;;;10.33;100.00
4085;BME280;2057;50.858;6.572;2023-02-17T03:54:05;100729.00;;;10.34;100.00
4085;BME280;2057;50.858;6.572;2023-02-17T03:56:31;100722.16;;;10.33;100.00
4085;BME280;2057;50.858;6.572;2023-02-17T03:58:56;100728.09;;;10.34;100.00
4085;BME280;2057;50.858;6.572;2023-02-17T04:01:21;100730.31;;;10.28;100.00
4085;BME280;2057;50.858;6.572;2023-02-17T04:03:47;100726.34;;;10.33;100.00
4085;BME280;2057;50.858;6.572;2023-02-17T04:06:12;100729.91;;;10.36;100.00
4085;BME280;2057;50.858;6.572;2023-02-17T04:08:38;100728.19;;;10.35;100.00
4085;BME280;2057;50.858;6.572;2023-02-17T04:11:04;100729.59;;;10.30;100.00
4085;BME280;2057;50.858;6.572;2023-02-17T04:13:31;100728.09;;;10.34;100.00
4085;BME280;2057;50.858;6.572;2023-02-17T04:15:57;100731.59;;;10.36;100.00
4085;BME280;2057;50.858;6.572;2023-02-17T04:18:22;100727.25;;;10.33;100.00
4085;BME280;2057;50.858;6.572;2023-02-17T04:20:49;100725.78;;;10.37;100.00
4085;BME280;2057;50.858;6.572;2023-02-17T04:23:15;100730.56;;;10.32;100.00
4085;BME280;2057;50.858;6.572;2023-02-17T04:25:41;100731.59;;;10.36;100.00
4085;BME280;2057;50.858;6.572;2023-02-17T04:28:07;100718.34;;;10.40;100.00
4085;BME280;2057;50.858;6.572;2023-02-17T04:30:33;100729.16;;;10.38;100.00
4085;BME280;2057;50.858;6.572;2023-02-17T04:32:58;100731.09;;;10.42;100.00
4085;BME280;2057;50.858;6.572;2023-02-17T04:35:24;100734.59;;;10.44;100.00
4085;BME280;2057;50.858;6.572;2023-02-17T04:37:49;100740.47;;;10.43;100.00
4085;BME280;2057;50.858;6.572;2023-02-17T04:40:15;100743.13;;;10.46;100.00
4085;BME280;2057;50.858;6.572;2023-02-17T04:42:40;100736.25;;;10.43;100.00
4085;BME280;2057;50.858;6.572;2023-02-17T04:45:06;100736.97;;;10.41;100.00
4085;BME280;2057;50.858;6.572;2023-02-17T04:47:32;100725.13;;;10.41;100.00
4085;BME280;2057;50.858;6.572;2023-02-17T04:49:57;100727.38;;;10.36;100.00
4085;BME280;2057;50.858;6.572;2023-02-17T04:52:23;100730.75;;;10.35;100.00
4085;BME280;2057;50.858;6.572;2023-02-17T04:54:48;100732.66;;;10.40;100.00
4085;BME280;2057;50.858;6.572;2023-02-17T04:57:13;100735.81;;;10.35;100.00
4085;BME280;2057;50.858;6.572;2023-02-17T04:59:39;100735.00;;;10.36;100.00
4085;BME280;2057;50.858;6.572;2023-02-17T05:02:06;100722.69;;;10.43;100.00
4085;BME280;2057;50.858;6.572;2023-02-17T05:04:32;100729.59;;;10.45;100.00
4085;BME280;2057;50.858;6.572;2023-02-17T05:06:57;100729.84;;;10.50;100.00
4085;BME280;2057;50.858;6.572;2023-02-17T05:09:25;100736.81;;;10.54;100.00
4085;BME280;2057;50.858;6.572;2023-02-17T05:11:50;100740.78;;;10.49;100.00
4085;BME280;2057;50.858;6.572;2023-02-17T05:14:15;100743.31;;;10.49;100.00
4085;BME280;2057;50.858;6.572;2023-02-17T05:16:41;100748.56;;;10.52;100.00
4085;BME280;2057;50.858;6.572;2023-02-17T05:19:06;100749.25;;;10.49;100.00
4085;BME280;2057;50.858;6.572;2023-02-17T05:21:31;100760.28;;;10.50;100.00
4085;BME280;2057;50.858;6.572;2023-02-17T05:23:57;100733.47;;;10.55;100.00
4085;BME280;2057;50.858;6.572;2023-02-17T05:26:22;100741.34;;;10.60;100.00
4085;BME280;2057;50.858;6.572;2023-02-17T05:28:48;100733.72;;;10.60;100.00
4085;BME280;2057;50.858;6.572;2023-02-17T05:31:13;100728.75;;;10.61;100.00
4085;BME280;2057;50.858;6.572;2023-02-17T05:33:39;100727.72;;;10.58;100.00
4085;BME280;2057;50.858;6.572;2023-02-17T05:36:06;100722.78;;;10.61;100.00
4085;BME280;2057;50.858;6.572;2023-02-17T05:38:32;100716.66;;;10.57;100.00
4085;BME280;2057;50.858;6.572;2023-02-17T05:40:58;100711.91;;;10.63;100.00
4085;BME280;2057;50.858;6.572;2023-02-17T05:43:23;100710.81;;;10.58;100.00
4085;BME280;2057;50.858;6.572;2023-02-17T05:45:49;100714.44;;;10.63;100.00
4085;BME280;2057;50.858;6.572;2023-02-17T05:48:14;100711.28;;;10.67;100.00
4085;BME280;2057;50.858;6.572;2023-02-17T05:50:42;100715.72;;;10.72;100.00
4085;BME280;2057;50.858;6.572;2023-02-17T05:53:07;100704.53;;;10.68;100.00
4085;BME280;2057;50.858;6.572;2023-02-17T05:55:33;100708.03;;;10.70;100.00
4085;BME280;2057;50.858;6.572;2023-02-17T05:57:58;100695.56;;;10.75;100.00
4085;BME280;2057;50.858;6.572;2023-02-17T06:00:24;100700.41;;;10.70;100.00
4085;BME280;2057;50.858;6.572;2023-02-17T06:02:49;100700.41;;;10.70;100.00
4085;BME280;2057;50.858;6.572;2023-02-17T06:05:15;100701.19;;;10.69;100.00
4085;BME280;2057;50.858;6.572;2023-02-17T06:07:41;100686.84;;;10.70;100.00
4085;BME280;2057;50.858;6.572;2023-02-17T06:10:07;100706.38;;;10.71;100.00
4085;BME280;2057;50.858;6.572;2023-02-17T06:12:32;100712.31;;;10.71;100.00
4085;BME280;2057;50.858;6.572;2023-02-17T06:14:58;100720.97;;;10.75;100.00
4085;BME280;2057;50.858;6.572;2023-02-17T06:17:23;100698.91;;;10.74;100.00
4085;BME280;2057;50.858;6.572;2023-02-17T06:19:48;100715.88;;;10.75;100.00
4085;BME280;2057;50.858;6.572;2023-02-17T06:22:14;100720.91;;;10.73;100.00
4085;BME280;2057;50.858;6.572;2023-02-17T06:24:39;100712.16;;;10.68;100.00
4085;BME280;2057;50.858;6.572;2023-02-17T06:27:04;100710.97;;;10.78;100.00
4085;BME280;2057;50.858;6.572;2023-02-17T06:29:30;100700.66;;;10.75;100.00
4085;BME280;2057;50.858;6.572;2023-02-17T06:31:55;100715.03;;;10.74;100.00
4085;BME280;2057;50.858;6.572;2023-02-17T06:34:21;100720.25;;;10.77;100.00
4085;BME280;2057;50.858;6.572;2023-02-17T06:36:46;100709.28;;;10.78;100.00
4085;BME280;2057;50.858;6.572;2023-02-17T06:39:12;100695.81;;;10.79;100.00
4085;BME280;2057;50.858;6.572;2023-02-17T06:41:37;100714.00;;;10.71;100.00
4085;BME280;2057;50.858;6.572;2023-02-17T06:44:02;100708.19;;;10.73;100.00
4085;BME280;2057;50.858;6.572;2023-02-17T06:46:28;100706.44;;;10.72;100.00
4085;BME280;2057;50.858;6.572;2023-02-17T06:48:53;100701.59;;;10.77;100.00
4085;BME280;2057;50.858;6.572;2023-02-17T06:51:18;100700.72;;;10.76;100.00
4085;BME280;2057;50.858;6.572;2023-02-17T06:53:44;100706.94;;;10.81;100.00
4085;BME280;2057;50.858;6.572;2023-02-17T06:56:09;100709.53;;;10.83;100.00
4085;BME280;2057;50.858;6.572;2023-02-17T06:58:36;100709.03;;;10.90;100.00
4085;BME280;2057;50.858;6.572;2023-02-17T07:01:01;100708.75;;;10.84;100.00
4085;BME280;2057;50.858;6.572;2023-02-17T07:03:26;100708.25;;;10.91;100.00
4085;BME280;2057;50.858;6.572;2023-02-17T07:05:58;100712.63;;;10.94;100.00
4085;BME280;2057;50.858;6.572;2023-02-17T07:08:24;100715.09;;;10.92;100.00
4085;BME280;2057;50.858;6.572;2023-02-17T07:10:49;100727.78;;;10.92;100.00
4085;BME280;2057;50.858;6.572;2023-02-17T07:13:15;100713.50;;;10.94;100.00
4085;BME280;2057;50.858;6.572;2023-02-17T07:15:40;100686.66;;;10.99;100.00
4085;BME280;2057;50.858;6.572;2023-02-17T07:18:06;100702.13;;;11.04;100.00
4085;BME280;2057;50.858;6.572;2023-02-17T07:20:31;100695.41;;;11.05;100.00
4085;BME280;2057;50.858;6.572;2023-02-17T07:23:00;100693.66;;;11.04;100.00
4085;BME280;2057;50.858;6.572;2023-02-17T07:25:25;100706.97;;;10.99;100.00
4085;BME280;2057;50.858;6.572;2023-02-17T07:27:51;100716.78;;;10.92;100.00
4085;BME280;2057;50.858;6.572;2023-02-17T07:30:16;100707.47;;;10.92;100.00
4085;BME280;2057;50.858;6.572;2023-02-17T07:32:42;100713.03;;;10.85;100.00
4085;BME280;2057;50.858;6.572;2023-02-17T07:35:07;100710.88;;;10.93;100.00
4085;BME280;2057;50.858;6.572;2023-02-17T07:37:33;100705.34;;;11.00;100.00
4085;BME280;2057;50.858;6.572;2023-02-17T07:39:58;100701.97;;;11.01;100.00
4085;BME280;2057;50.858;6.572;2023-02-17T07:42:26;100714.91;;;11.06;100.00
4085;BME280;2057;50.858;6.572;2023-02-17T07:44:52;100727.84;;;11.10;100.00
4085;BME280;2057;50.858;6.572;2023-02-17T07:47:17;100734.78;;;11.13;100.00
4085;BME280;2057;50.858;6.572;2023-02-17T07:49:43;100735.06;;;11.19;100.00
4085;BME280;2057;50.858;6.572;2023-02-17T07:52:08;100733.50;;;11.21;100.00
4085;BME280;2057;50.858;6.572;2023-02-17T07:54:33;100717.22;;;11.18;100.00
4085;BME280;2057;50.858;6.572;2023-02-17T07:56:59;100723.56;;;11.26;100.00
4085;BME280;2057;50.858;6.572;2023-02-17T07:59:24;100741.41;;;11.27;100.00
4085;BME280;2057;50.858;6.572;2023-02-17T08:01:50;100726.31;;;11.30;100.00
4085;BME280;2057;50.858;6.572;2023-02-17T08:04:15;100755.16;;;11.31;100.00
4085;BME280;2057;50.858;6.572;2023-02-17T08:06:41;100731.47;;;11.32;100.00
4085;BME280;2057;50.858;6.572;2023-02-17T08:09:06;100731.66;;;11.35;100.00
4085;BME280;2057;50.858;6.572;2023-02-17T08:11:51;100724.25;;;11.40;100.00
4085;BME280;2057;50.858;6.572;2023-02-17T08:14:35;100716.81;;;11.44;100.00
4085;BME280;2057;50.858;6.572;2023-02-17T08:17:02;100718.50;;;11.44;100.00
4085;BME280;2057;50.858;6.572;2023-02-17T08:19:27;100722.94;;;11.48;100.00
4085;BME280;2057;50.858;6.572;2023-02-17T08:21:53;100733.03;;;11.46;100.00
4085;BME280;2057;50.858;6.572;2023-02-17T08:24:18;100732.63;;;11.55;100.00
4085;BME280;2057;50.858;6.572;2023-02-17T08:26:44;100736.03;;;11.56;100.00
4085;BME280;2057;50.858;6.572;2023-02-17T08:29:10;100743.09;;;11.61;100.00
4085;BME280;2057;50.858;6.572;2023-02-17T08:31:36;100732.91;;;11.61;100.00
4085;BME280;2057;50.858;6.572;2023-02-17T08:34:07;100740.69;;;11.65;100.00
4085;BME280;2057;50.858;6.572;2023-02-17T08:36:33;100736.75;;;11.71;100.00
4085;BME280;2057;50.858;6.572;2023-02-17T08:39:02;100735.75;;;11.68;100.00
4085;BME280;2057;50.858;6.572;2023-02-17T08:41:34;100734.44;;;11.76;100.00
4085;BME280;2057;50.858;6.572;2023-02-17T08:44:01;100732.28;;;11.84;100.00
4085;BME280;2057;50.858;6.572;2023-02-17T08:46:27;100734.16;;;11.88;100.00
4085;BME280;2057;50.858;6.572;2023-02-17T08:48:53;100732.72;;;11.93;100.00
4085;BME280;2057;50.858;6.572;2023-02-17T08:51:20;100739.13;;;12.03;100.00
4085;BME280;2057;50.858;6.572;2023-02-17T08:53:54;100729.09;;;12.06;100.00
4085;BME280;2057;50.858;6.572;2023-02-17T08:56:21;100722.63;;;12.13;100.00
4085;BME280;2057;50.858;6.572;2023-02-17T08:58:47;100733.03;;;12.17;100.00
4085;BME280;2057;50.858;6.572;2023-02-17T09:01:13;100720.31;;;12.17;100.00
4085;BME280;2057;50.858;6.572;2023-02-17T09:03:39;100729.66;;;12.18;100.00
4085;BME280;2057;50.858;6.572;2023-02-17T09:06:06;100724.06;;;12.26;100.00
4085;BME280;2057;50.858;6.572;2023-02-17T09:08:31;100719.91;;;12.28;100.00
4085;BME280;2057;50.858;6.572;2023-02-17T09:10:58;100740.47;;;12.32;100.00
4085;BME280;2057;50.858;6.572;2023-02-17T09:13:23;100736.41;;;12.36;100.00
4085;BME280;2057;50.858;6.572;2023-02-17T09:15:50;100730.59;;;12.38;100.00
4085;BME280;2057;50.858;6.572;2023-02-17T09:18:18;100735.91;;;12.43;100.00
4085;BME280;2057;50.858;6.572;2023-02-17T09:20:43;100738.66;;;12.48;100.00
4085;BME280;2057;50.858;6.572;2023-02-17T09:23:09;100752.31;;;12.50;100.00
4085;BME280;2057;50.858;6.572;2023-02-17T09:25:34;100744.97;;;12.56;100.00
4085;BME280;2057;50.858;6.572;2023-02-17T09:28:00;100733.97;;;12.57;100.00
4085;BME280;2057;50.858;6.572;2023-02-17T09:30:26;100740.09;;;12.61;100.00
4085;BME280;2057;50.858;6.572;2023-02-17T09:32:51;100740.28;;;12.65;100.00
4085;BME280;2057;50.858;6.572;2023-02-17T09:35:17;100740.59;;;12.73;100.00
4085;BME280;2057;50.858;6.572;2023-02-17T09:37:43;100736.66;;;12.80;100.00
4085;BME280;2057;50.858;6.572;2023-02-17T09:40:17;100747.38;;;12.92;100.00
4085;BME280;2057;50.858;6.572;2023-02-17T09:42:43;100745.56;;;12.90;100.00
4085;BME280;2057;50.858;6.572;2023-02-17T09:45:31;100745.88;;;12.96;100.00
4085;BME280;2057;50.858;6.572;2023-02-17T09:48:00;100746.53;;;12.92;100.00
4085;BME280;2057;50.858;6.572;2023-02-17T09:53:08;100750.31;;;13.01;100.00
4085;BME280;2057;50.858;6.572;2023-02-17T09:55:44;100737.53;;;13.00;100.00
4085;BME280;2057;50.858;6.572;2023-02-17T09:58:26;100760.88;;;13.09;100.00
4085;BME280;2057;50.858;6.572;2023-02-17T10:00:57;100756.34;;;13.23;100.00
4085;BME280;2057;50.858;6.572;2023-02-17T10:03:29;100761.75;;;13.31;100.00
4085;BME280;2057;50.858;6.572;2023-02-17T10:09:02;100754.00;;;13.47;99.12
4085;BME280;2057;50.858;6.572;2023-02-17T10:11:41;100755.47;;;13.42;99.39
4085;BME280;2057;50.858;6.572;2023-02-17T10:14:39;100746.16;;;13.43;99.54
4085;BME280;2057;50.858;6.572;2023-02-17T10:19:50;100763.66;;;13.55;98.71
4085;BME280;2057;50.858;6.572;2023-02-17T10:22:21;100758.75;;;13.59;98.27
4085;BME280;2057;50.858;6.572;2023-02-17T10:24:46;100770.75;;;13.62;98.27
4085;BME280;2057;50.858;6.572;2023-02-17T10:32:55;100772.16;;;13.76;97.11
4085;BME280;2057;50.858;6.572;2023-02-17T10:41:04;100762.03;;;13.99;98.12
4085;BME280;2057;50.858;6.572;2023-02-17T10:43:33;100760.16;;;14.18;96.67
4085;BME280;2057;50.858;6.572;2023-02-17T10:46:00;100754.38;;;14.22;96.74
4085;BME280;2057;50.858;6.572;2023-02-17T10:48:39;100769.94;;;14.28;95.38
4085;BME280;2057;50.858;6.572;2023-02-17T10:51:06;100765.97;;;14.36;96.14
4085;BME280;2057;50.858;6.572;2023-02-17T10:53:35;100773.25;;;14.25;94.86
4085;BME280;2057;50.858;6.572;2023-02-17T10:56:11;100770.91;;;14.32;95.10
4085;BME280;2057;50.858;6.572;2023-02-17T10:58:54;100765.88;;;14.33;95.08
4085;BME280;2057;50.858;6.572;2023-02-17T11:01:22;100751.94;;;14.48;94.92
4085;BME280;2057;50.858;6.572;2023-02-17T11:04:08;100755.88;;;14.39;94.25
4085;BME280;2057;50.858;6.572;2023-02-17T11:06:53;100769.25;;;14.32;94.71
4085;BME280;2057;50.858;6.572;2023-02-17T11:09:22;100769.31;;;14.34;95.15
4085;BME280;2057;50.858;6.572;2023-02-17T11:12:05;100749.56;;;14.30;94.86
4085;BME280;2057;50.858;6.572;2023-02-17T11:14:35;100759.63;;;14.25;95.29
4085;BME280;2057;50.858;6.572;2023-02-17T11:17:03;100761.19;;;14.21;95.88
4085;BME280;2057;50.858;6.572;2023-02-17T11:19:37;100768.44;;;14.33;95.80
4085;BME280;2057;50.858;6.572;2023-02-17T11:22:18;100770.81;;;14.28;95.45
4085;BME280;2057;50.858;6.572;2023-02-17T11:24:57;100772.63;;;14.31;95.31
4085;BME280;2057;50.858;6.572;2023-02-17T11:27:24;100753.16;;;14.35;96.21
4085;BME280;2057;50.858;6.572;2023-02-17T11:29:50;100752.47;;;14.39;95.70
4085;BME280;2057;50.858;6.572;2023-02-17T11:32:15;100768.50;;;14.35;95.62
4085;BME280;2057;50.858;6.572;2023-02-17T11:34:42;100767.31;;;14.26;96.14
4085;BME280;2057;50.858;6.572;2023-02-17T11:42:16;100752.41;;;14.37;95.77
4085;BME280;2057;50.858;6.572;2023-02-17T11:44:45;100742.25;;;14.39;95.96
4085;BME280;2057;50.858;6.572;2023-02-17T11:50:29;100740.16;;;14.51;95.54
4085;BME280;2057;50.858;6.572;2023-02-17T11:58:58;100709.81;;;14.61;94.05
4085;BME280;2057;50.858;6.572;2023-02-17T12:10:02;100701.47;;;14.65;92.03
4085;BME280;2057;50.858;6.572;2023-02-17T12:20:57;100702.72;;;15.00;91.44
4085;BME280;2057;50.858;6.572;2023-02-17T12:23:42;100701.94;;;15.03;91.42
4085;BME280;2057;50.858;6.572;2023-02-17T12:32:05;100674.47;;;14.97;91.36
4085;BME280;2057;50.858;6.572;2023-02-17T12:34:49;100692.78;;;15.08;90.53
4085;BME280;2057;50.858;6.572;2023-02-17T12:37:26;100666.97;;;15.02;90.38
4085;BME280;2057;50.858;6.572;2023-02-17T12:39:59;100668.47;;;15.21;88.15
4085;BME280;2057;50.858;6.572;2023-02-17T12:42:40;100667.94;;;15.31;88.22
4085;BME280;2057;50.858;6.572;2023-02-17T12:45:24;100668.84;;;15.33;86.84
4085;BME280;2057;50.858;6.572;2023-02-17T12:48:00;100671.84;;;15.47;86.85
4085;BME280;2057;50.858;6.572;2023-02-17T12:53:00;100668.09;;;15.63;86.67
4085;BME280;2057;50.858;6.572;2023-02-17T12:55:35;100680.78;;;15.60;87.34
4085;BME280;2057;50.858;6.572;2023-02-17T12:58:11;100668.97;;;15.64;86.76
4085;BME280;2057;50.858;6.572;2023-02-17T13:01:04;100650.06;;;15.88;86.64
4085;BME280;2057;50.858;6.572;2023-02-17T13:03:32;100653.94;;;15.75;85.30
4085;BME280;2057;50.858;6.572;2023-02-17T13:06:03;100678.41;;;15.66;86.17
4085;BME280;2057;50.858;6.572;2023-02-17T13:08:38;100674.09;;;15.36;87.76
4085;BME280;2057;50.858;6.572;2023-02-17T13:11:11;100665.97;;;15.23;88.40
4085;BME280;2057;50.858;6.572;2023-02-17T13:13:37;100662.34;;;15.17;88.45
4085;BME280;2057;50.858;6.572;2023-02-17T13:16:09;100675.84;;;15.12;88.62
4085;BME280;2057;50.858;6.572;2023-02-17T13:18:42;100676.34;;;15.01;88.63
4085;BME280;2057;50.858;6.572;2023-02-17T13:24:11;100672.16;;;15.03;87.92
4085;BME280;2057;50.858;6.572;2023-02-17T13:26:41;100689.00;;;14.98;87.73
4085;BME280;2057;50.858;6.572;2023-02-17T13:31:49;100692.38;;;14.97;88.67
4085;BME280;2057;50.858;6.572;2023-02-17T13:36:49;100673.00;;;15.04;90.40
4085;BME280;2057;50.858;6.572;2023-02-17T13:41:59;100705.44;;;15.05;88.26
4085;BME280;2057;50.858;6.572;2023-02-17T13:44:30;100708.78;;;15.02;88.10
4085;BME280;2057;50.858;6.572;2023-02-17T13:47:00;100710.50;;;15.03;87.34
4085;BME280;2057;50.858;6.572;2023-02-17T13:49:29;100719.50;;;14.92;88.07
4085;BME280;2057;50.858;6.572;2023-02-17T13:52:07;100708.38;;;14.92;88.75
4085;BME280;2057;50.858;6.572;2023-02-17T13:54:33;100714.25;;;14.89;87.71
4085;BME280;2057;50.858;6.572;2023-02-17T13:56:58;100721.16;;;14.92;87.53
4085;BME280;2057;50.858;6.572;2023-02-17T13:59:25;100713.22;;;15.08;87.38
4085;BME280;2057;50.858;6.572;2023-02-17T14:01:51;100720.16;;;15.12;87.07
4085;BME280;2057;50.858;6.572;2023-02-17T14:04:24;100727.84;;;15.12;87.60
4085;BME280;2057;50.858;6.572;2023-02-17T14:06:51;100733.28;;;15.21;87.13
4085;BME280;2057;50.858;6.572;2023-02-17T14:11:49;100731.34;;;14.90;87.44
4085;BME280;2057;50.858;6.572;2023-02-17T14:14:15;100748.25;;;14.86;87.57
4085;BME280;2057;50.858;6.572;2023-02-17T14:16:41;100734.66;;;14.87;86.76
4085;BME280;2057;50.858;6.572;2023-02-17T14:19:13;100748.13;;;14.83;86.17
4085;BME280;2057;50.858;6.572;2023-02-17T14:21:41;100782.56;;;14.69;86.91
4085;BME280;2057;50.858;6.572;2023-02-17T14:24:23;100744.22;;;14.69;87.00
4085;BME280;2057;50.858;6.572;2023-02-17T14:26:49;100760.31;;;14.66;86.79
4085;BME280;2057;50.858;6.572;2023-02-17T14:29:15;100749.84;;;14.60;87.00
4085;BME280;2057;50.858;6.572;2023-02-17T14:31:48;100732.78;;;14.59;86.90
4085;BME280;2057;50.858;6.572;2023-02-17T14:36:48;100763.53;;;14.62;87.30
4085;BME280;2057;50.858;6.572;2023-02-17T14:39:14;100741.72;;;14.70;87.21
4085;BME280;2057;50.858;6.572;2023-02-17T14:41:41;100751.28;;;14.76;87.85
4085;BME280;2057;50.858;6.572;2023-02-17T14:44:07;100751.13;;;14.71;88.50
4085;BME280;2057;50.858;6.572;2023-02-17T14:46:33;100749.84;;;14.83;88.57
4085;BME280;2057;50.858;6.572;2023-02-17T14:48:59;100750.44;;;14.76;89.53
4085;BME280;2057;50.858;6.572;2023-02-17T14:51:33;100744.56;;;14.78;89.70
4085;BME280;2057;50.858;6.572;2023-02-17T14:54:11;100748.53;;;14.70;88.50